Time;durP1;ratioP1;P1;durP2;ratioP2;P2;SDS_P1;SDS_P2;PMS_P1;PMS_P2;Temp;Humidity;BMP_temperature;BMP_pressure;BME280_temperature;BME280_humidity;BME280_pressure;Samples;Min_cycle;Max_cycle;Signal;HPM_P1;HPM_P2
2021/06/21 00:01:42;;;;;;;;;;;;;;;;;;5022303;28;20039;-72
2021/06/21 00:04:08;;;;;;;;;;;;;;;;;;5028115;28;19920;-72
2021/06/21 00:06:34;;;;;;;;;;;;;;;;;;5027617;28;19923;-72
2021/06/21 00:09:00;;;;;;;;;;;;;;;;;;5027685;28;20318;-73
2021/06/21 00:11:25;;;;;;;;;;;;;;;;;;5021896;28;19967;-72
2021/06/21 00:13:51;;;;;;;;;;;;;;;;;;5026717;28;20347;-72
2021/06/21 00:16:17;;;;;;;;;;;;;;;;;;5027409;28;19917;-73
2021/06/21 00:18:43;;;;;;;;;;;;;;;;;;5028680;28;20364;-73
2021/06/21 00:21:09;;;;;;;;;;;;;;;;;;5027057;28;19913;-72
2021/06/21 00:23:35;;;;;;;;;;;;;;;;;;5028438;28;19913;-72
2021/06/21 00:26:01;;;;;;;;;;;;;;;;;;5028813;28;19952;-73
2021/06/21 00:28:27;;;;;;;;;;;;;;;;;;5029087;28;19924;-72
2021/06/21 00:30:53;;;;;;;;;;;;;;;;;;5027639;28;19917;-72
2021/06/21 00:33:18;;;;;;;;;;;;;;;;;;5026341;28;19913;-73
2021/06/21 00:35:44;;;;;;;;;;;;;;;;;;5028336;28;20017;-73
2021/06/21 00:38:10;;;;;;;;;;;;;;;;;;5029089;28;19970;-73
2021/06/21 00:40:36;;;;;;;;;;;;;;;;;;5029535;28;20311;-73
2021/06/21 00:43:02;;;;;;;;;;;;;;;;;;5027506;28;19917;-73
2021/06/21 00:45:28;;;;;;;;;;;;;;;;;;5027822;28;19913;-72
2021/06/21 00:47:54;;;;;;;;;;;;;;;;;;5027849;28;19925;-71
2021/06/21 00:50:20;;;;;;;;;;;;;;;;;;5024778;28;19917;-72
2021/06/21 00:52:45;;;;;;;;;;;;;;;;;;5021674;28;20380;-72
2021/06/21 00:55:11;;;;;;;;;;;;;;;;;;5022533;28;19920;-72
2021/06/21 00:57:37;;;;;;;;;;;;;;;;;;5024571;28;19948;-72
2021/06/21 01:00:03;;;;;;;;;;;;;;;;;;5030473;28;19944;-72
2021/06/21 01:02:29;;;;;;;;;;;;;;;;;;5029536;28;20396;-73
2021/06/21 01:04:55;;;;;;;;;;;;;;;;;;5033423;28;19913;-73
2021/06/21 01:07:21;;;;;;;;;;;;;;;;;;5029319;28;20384;-73
2021/06/21 01:09:47;;;;;;;;;;;;;;;;;;5030467;28;19936;-73
2021/06/21 01:12:13;;;;;;;;;;;;;;;;;;5032283;28;19928;-73
2021/06/21 01:14:39;;;;;;;;;;;;;;;;;;5027661;28;19947;-73
2021/06/21 01:17:05;;;;;;;;;;;;;;;;;;5032376;28;19909;-73
2021/06/21 01:19:31;;;;;;;;;;;;;;;;;;5030146;28;19913;-72
2021/06/21 01:21:56;;;;;;;;;;;;;;;;;;5030856;28;19960;-73
2021/06/21 01:24:22;;;;;;;;;;;;;;;;;;5031123;28;20292;-72
2021/06/21 01:26:48;;;;;;;;;;;;;;;;;;5025540;28;20000;-73
2021/06/21 01:29:16;;;;;;;;;;;;;;;;;;5025925;28;20389;-72
2021/06/21 01:31:42;;;;;;;;;;;;;;;;;;5032130;28;20052;-72
2021/06/21 01:34:08;;;;;;;;;;;;;;;;;;5030547;28;19965;-72
2021/06/21 01:36:34;;;;;;;;;;;;;;;;;;5031524;28;19922;-74
2021/06/21 01:39:00;;;;;;;;;;;;;;;;;;5029108;28;19932;-75
2021/06/21 01:41:26;;;;;;;;;;;;;;;;;;5030898;28;19960;-75
2021/06/21 01:43:51;;;;;;;;;;;;;;;;;;5031262;28;19927;-75
2021/06/21 01:46:17;;;;;;;;;;;;;;;;;;5031546;28;19925;-75
2021/06/21 01:48:43;;;;;;;;;;;;;;;;;;5031056;28;19960;-75
2021/06/21 01:51:09;;;;;;;;;;;;;;;;;;5028601;28;19913;-75
2021/06/21 01:53:35;;;;;;;;;;;;;;;;;;5026610;28;19936;-75
2021/06/21 01:56:01;;;;;;;;;;;;;;;;;;5030566;28;19967;-75
2021/06/21 01:58:27;;;;;;;;;;;;;;;;;;5031964;28;20371;-75
2021/06/21 02:00:53;;;;;;;;;;;;;;;;;;5031336;28;20295;-75
2021/06/21 02:03:18;;;;;;;;;;;;;;;;;;5031598;28;19960;-74
2021/06/21 02:05:44;;;;;;;;;;;;;;;;;;5030623;28;20304;-74
2021/06/21 02:08:12;;;;;;;;;;;;;;;;;;5030214;28;19921;-75
2021/06/21 02:10:39;;;;;;;;;;;;;;;;;;5032098;28;19920;-75
2021/06/21 02:13:05;;;;;;;;;;;;;;;;;;5030715;28;19936;-75
2021/06/21 02:15:31;;;;;;;;;;;;;;;;;;5029579;28;20357;-75
2021/06/21 02:17:57;;;;;;;;;;;;;;;;;;5024344;28;19948;-75
2021/06/21 02:20:23;;;;;;;;;;;;;;;;;;5026092;28;20015;-75
2021/06/21 02:22:49;;;;;;;;;;;;;;;;;;5030860;28;20209;-74
2021/06/21 02:25:15;;;;;;;;;;;;;;;;;;5029864;28;20308;-75
2021/06/21 02:27:41;;;;;;;;;;;;;;;;;;5026229;28;20304;-75
2021/06/21 02:30:07;;;;;;;;;;;;;;;;;;5029025;28;19928;-75
2021/06/21 02:32:33;;;;;;;;;;;;;;;;;;5030248;28;20368;-75
2021/06/21 02:34:59;;;;;;;;;;;;;;;;;;5028539;28;19959;-75
2021/06/21 02:37:24;;;;;;;;;;;;;;;;;;5030041;28;19913;-75
2021/06/21 02:39:50;;;;;;;;;;;;;;;;;;5022708;28;20455;-74
2021/06/21 02:42:16;;;;;;;;;;;;;;;;;;5025541;28;19932;-75
2021/06/21 02:44:42;;;;;;;;;;;;;;;;;;5027284;28;19913;-74
2021/06/21 02:47:08;;;;;;;;;;;;;;;;;;5044615;28;19932;-75
2021/06/21 02:49:34;;;;;;;;;;;;;;;;;;5030508;28;19913;-75
2021/06/21 02:52:00;;;;;;;;;;;;;;;;;;5029366;28;19927;-75
2021/06/21 02:54:26;;;;;;;;;;;;;;;;;;5030664;28;19913;-75
2021/06/21 02:56:52;;;;;;;;;;;;;;;;;;5027226;28;19937;-75
2021/06/21 02:59:18;;;;;;;;;;;;;;;;;;5029540;28;19913;-74
2021/06/21 03:01:44;;;;;;;;;;;;;;;;;;5028777;28;19996;-74
2021/06/21 03:04:10;;;;;;;;;;;;;;;;;;5029335;28;20451;-75
2021/06/21 03:06:36;;;;;;;;;;;;;;;;;;5028238;28;19951;-75
2021/06/21 03:09:02;;;;;;;;;;;;;;;;;;5023478;28;19920;-74
2021/06/21 03:11:28;;;;;;;;;;;;;;;;;;5030616;28;19947;-74
2021/06/21 03:13:54;;;;;;;;;;;;;;;;;;5030816;28;19948;-75
2021/06/21 03:16:20;;;;;;;;;;;;;;;;;;5027389;28;20344;-75
2021/06/21 03:18:47;;;;;;;;;;;;;;;;;;5028477;28;19921;-75
2021/06/21 03:21:13;;;;;;;;;;;;;;;;;;5024175;28;19913;-75
2021/06/21 03:23:39;;;;;;;;;;;;;;;;;;5028783;28;20372;-75
2021/06/21 03:26:04;;;;;;;;;;;;;;;;;;5029071;28;19913;-75
2021/06/21 03:28:30;;;;;;;;;;;;;;;;;;5025758;28;20443;-74
2021/06/21 03:30:56;;;;;;;;;;;;;;;;;;5029443;28;19913;-74
2021/06/21 03:33:22;;;;;;;;;;;;;;;;;;5025784;28;19919;-75
2021/06/21 03:35:48;;;;;;;;;;;;;;;;;;5026822;28;19997;-74
2021/06/21 03:38:14;;;;;;;;;;;;;;;;;;5026623;28;19928;-74
2021/06/21 03:40:40;;;;;;;;;;;;;;;;;;5028185;28;20006;-74
2021/06/21 03:43:06;;;;;;;;;;;;;;;;;;5023287;28;20303;-74
2021/06/21 03:45:32;;;;;;;;;;;;;;;;;;5027734;28;19913;-74
2021/06/21 03:47:57;;;;;;;;;;;;;;;;;;5027729;28;19917;-75
2021/06/21 03:50:23;;;;;;;;;;;;;;;;;;5028763;28;20000;-75
2021/06/21 03:52:49;;;;;;;;;;;;;;;;;;5022514;28;19920;-75
2021/06/21 03:55:15;;;;;;;;;;;;;;;;;;5027346;28;20035;-74
2021/06/21 03:57:41;;;;;;;;;;;;;;;;;;5028021;28;20051;-74
2021/06/21 04:00:07;;;;;;;;;;;;;;;;;;5024798;28;20281;-73
2021/06/21 04:02:33;;;;;;;;;;;;;;;;;;5019868;28;19992;-74
2021/06/21 04:04:59;;;;;;;;;;;;;;;;;;5027904;28;20403;-74
2021/06/21 04:07:25;;;;;;;;;;;;;;;;;;5028065;28;20211;-75
2021/06/21 04:09:51;;;;;;;;;;;;;;;;;;5025905;28;19914;-75
2021/06/21 04:12:16;;;;;;;;;;;;;;;;;;5028496;28;20000;-75
2021/06/21 04:14:42;;;;;;;;;;;;;;;;;;5023684;28;20348;-74
2021/06/21 04:17:08;;;;;;;;;;;;;;;;;;5029925;28;20433;-74
2021/06/21 04:19:34;;;;;;;;;;;;;;;;;;5028355;28;19940;-74
2021/06/21 04:22:01;;;;;;;;;;;;;;;;;;5026180;28;19980;-75
2021/06/21 04:24:27;;;;;;;;;;;;;;;;;;5027939;28;19913;-75
2021/06/21 04:26:53;;;;;;;;;;;;;;;;;;5025091;28;19917;-74
2021/06/21 04:29:19;;;;;;;;;;;;;;;;;;5027873;28;20300;-75
2021/06/21 04:31:45;;;;;;;;;;;;;;;;;;5026322;28;19921;-75
2021/06/21 04:34:10;;;;;;;;;;;;;;;;;;5025016;28;20713;-75
2021/06/21 04:36:36;;;;;;;;;;;;;;;;;;5028369;28;19936;-74
2021/06/21 04:39:02;;;;;;;;;;;;;;;;;;5028100;28;19913;-74
2021/06/21 04:41:28;;;;;;;;;;;;;;;;;;5029015;28;20112;-74
2021/06/21 04:43:54;;;;;;;;;;;;;;;;;;5026596;28;19913;-74
2021/06/21 04:46:23;;;;;;;;;;;;;;;;;;5023477;28;19917;-74
2021/06/21 04:48:49;;;;;;;;;;;;;;;;;;5025853;28;20412;-75
2021/06/21 04:51:15;;;;;;;;;;;;;;;;;;5021841;28;20007;-75
2021/06/21 04:53:41;;;;;;;;;;;;;;;;;;5025316;28;19921;-74
2021/06/21 04:56:07;;;;;;;;;;;;;;;;;;5027833;28;19999;-74
2021/06/21 04:58:35;;;;;;;;;;;;;;;;;;5025228;28;19949;-74
2021/06/21 05:01:01;;;;;;;;;;;;;;;;;;5025999;28;19921;-74
2021/06/21 05:03:27;;;;;;;;;;;;;;;;;;5028306;28;19913;-73
2021/06/21 05:05:53;;;;;;;;;;;;;;;;;;5028112;28;19913;-74
2021/06/21 05:08:19;;;;;;;;;;;;;;;;;;5028638;28;19917;-74
2021/06/21 05:10:45;;;;;;;;;;;;;;;;;;5024280;28;19922;-73
2021/06/21 05:13:10;;;;;;;;;;;;;;;;;;5024851;28;19976;-75
2021/06/21 05:15:36;;;;;;;;;;;;;;;;;;5025899;28;19913;-74
2021/06/21 05:18:02;;;;;;;;;;;;;;;;;;5026863;28;20850;-75
2021/06/21 05:20:28;;;;;;;;;;;;;;;;;;5026882;28;20277;-75
2021/06/21 05:22:55;;;;;;;;;;;;;;;;;;5022922;28;19920;-74
2021/06/21 05:25:21;;;;;;;;;;;;;;;;;;5027433;28;19964;-73
2021/06/21 05:27:47;;;;;;;;;;;;;;;;;;5024820;28;19960;-73
2021/06/21 05:30:12;;;;;;;;;;;;;;;;;;5024150;28;19913;-73
2021/06/21 05:32:38;;;;;;;;;;;;;;;;;;5024633;28;20233;-73
2021/06/21 05:35:04;;;;;;;;;;;;;;;;;;5027460;28;19914;-72
2021/06/21 05:37:30;;;;;;;;;;;;;;;;;;5023010;28;19917;-73
2021/06/21 05:39:56;;;;;;;;;;;;;;;;;;5023485;28;19913;-73
2021/06/21 05:42:22;;;;;;;;;;;;;;;;;;5025450;28;19917;-74
2021/06/21 05:44:48;;;;;;;;;;;;;;;;;;5025874;28;19996;-75
2021/06/21 05:47:14;;;;;;;;;;;;;;;;;;5028482;28;20008;-75
2021/06/21 05:49:40;;;;;;;;;;;;;;;;;;5028826;28;20139;-75
2021/06/21 05:52:06;;;;;;;;;;;;;;;;;;5032206;28;20000;-76
2021/06/21 05:54:32;;;;;;;;;;;;;;;;;;5031442;28;19952;-75
2021/06/21 05:56:58;;;;;;;;;;;;;;;;;;5025942;28;19925;-75
2021/06/21 05:59:24;;;;;;;;;;;;;;;;;;5026851;28;19916;-70
2021/06/21 06:01:50;;;;;;;;;;;;;;;;;;5026736;28;20461;-74
2021/06/21 06:04:16;;;;;;;;;;;;;;;;;;5030427;28;20048;-72
2021/06/21 06:06:42;;;;;;;;;;;;;;;;;;5029753;28;19936;-74
2021/06/21 06:09:07;;;;;;;;;;;;;;;;;;5029843;28;19913;-74
2021/06/21 06:11:33;;;;;;;;;;;;;;;;;;5029816;28;20399;-74
2021/06/21 06:13:59;;;;;;;;;;;;;;;;;;5029683;28;19913;-74
2021/06/21 06:16:25;;;;;;;;;;;;;;;;;;5030865;28;19947;-74
2021/06/21 06:18:51;;;;;;;;;;;;;;;;;;5029633;28;20387;-75
2021/06/21 06:21:17;;;;;;;;;;;;;;;;;;5024547;28;19921;-73
2021/06/21 06:23:43;;;;;;;;;;;;;;;;;;5022209;28;19921;-72
2021/06/21 06:26:09;;;;;;;;;;;;;;;;;;5026067;28;19920;-74
2021/06/21 06:28:38;;;;;;;;;;;;;;;;;;5029964;28;19917;-74
2021/06/21 06:31:03;;;;;;;;;;;;;;;;;;5030145;28;20359;-74
2021/06/21 06:33:29;;;;;;;;;;;;;;;;;;5035180;28;19917;-75
2021/06/21 06:35:55;;;;;;;;;;;;;;;;;;5031459;28;20012;-74
2021/06/21 06:38:21;;;;;;;;;;;;;;;;;;5027054;28;19919;-73
2021/06/21 06:40:47;;;;;;;;;;;;;;;;;;5031468;28;19913;-74
2021/06/21 06:43:13;;;;;;;;;;;;;;;;;;5030505;28;20368;-75
2021/06/21 06:45:39;;;;;;;;;;;;;;;;;;5031629;28;19959;-72
2021/06/21 06:48:05;;;;;;;;;;;;;;;;;;5031483;28;19952;-75
2021/06/21 06:50:31;;;;;;;;;;;;;;;;;;5031286;28;19921;-75
2021/06/21 06:52:58;;;;;;;;;;;;;;;;;;5028492;28;21329;-74
2021/06/21 06:58:09;;;;;;;;;;;;;;;;;;5032365;28;19940;-75
2021/06/21 07:00:35;;;;;;;;;;;;;;;;;;5024770;28;20381;-77
2021/06/21 07:03:01;;;;;;;;;;;;;;;;;;5029589;28;19913;-75
2021/06/21 07:05:27;;;;;;;;;;;;;;;;;;5033965;28;19990;-75
2021/06/21 07:07:53;;;;;;;;;;;;;;;;;;5023716;28;20410;-74
2021/06/21 07:10:19;;;;;;;;;;;;;;;;;;5028126;28;19921;-74
2021/06/21 07:12:45;;;;;;;;;;;;;;;;;;5030384;28;19921;-76
2021/06/21 07:15:11;;;;;;;;;;;;;;;;;;5029348;28;20571;-73
2021/06/21 07:17:37;;;;;;;;;;;;;;;;;;5032039;28;19956;-72
2021/06/21 07:20:02;;;;;;;;;;;;;;;;;;5027420;28;19925;-72
2021/06/21 07:22:28;;;;;;;;;;;;;;;;;;5028787;28;19974;-72
2021/06/21 07:24:54;;;;;;;;;;;;;;;;;;5029904;28;20022;-72
2021/06/21 07:27:20;;;;;;;;;;;;;;;;;;5029920;28;19920;-72
2021/06/21 07:29:46;;;;;;;;;;;;;;;;;;5025245;28;19909;-72
2021/06/21 07:32:12;;;;;;;;;;;;;;;;;;5030501;28;19920;-72
2021/06/21 07:34:38;;;;;;;;;;;;;;;;;;5046437;28;19921;-72
2021/06/21 07:37:04;;;;;;;;;;;;;;;;;;5026125;28;19917;-71
2021/06/21 07:39:30;;;;;;;;;;;;;;;;;;5026242;28;20411;-72
2021/06/21 07:41:56;;;;;;;;;;;;;;;;;;5042730;28;19917;-70
2021/06/21 07:44:23;;;;;;;;;;;;;;;;;;5034148;28;20442;-71
2021/06/21 07:46:49;;;;;;;;;;;;;;;;;;5030688;28;20364;-72
2021/06/21 07:49:15;;;;;;;;;;;;;;;;;;5029324;28;19913;-72
2021/06/21 07:51:43;;;;;;;;;;;;;;;;;;5031310;28;19924;-72
2021/06/21 07:54:11;;;;;;;;;;;;;;;;;;5030355;28;19960;-71
2021/06/21 07:56:37;;;;;;;;;;;;;;;;;;5029417;28;19944;-72
2021/06/21 07:59:03;;;;;;;;;;;;;;;;;;5028789;28;19949;-72
2021/06/21 08:01:29;;;;;;;;;;;;;;;;;;5029109;28;19914;-72
2021/06/21 08:03:56;;;;;;;;;;;;;;;;;;5029436;28;19913;-72
2021/06/21 08:06:22;;;;;;;;;;;;;;;;;;5028744;28;20368;-72
2021/06/21 08:08:48;;;;;;;;;;;;;;;;;;5044880;28;19956;-73
2021/06/21 08:11:14;;;;;;;;;;;;;;;;;;5029005;28;19919;-74
2021/06/21 08:13:40;;;;;;;;;;;;;;;;;;5029046;28;19974;-74
2021/06/21 08:16:06;;;;;;;;;;;;;;;;;;5032473;28;19913;-74
2021/06/21 08:18:32;;;;;;;;;;;;;;;;;;5030494;28;19913;-74
2021/06/21 08:20:58;;;;;;;;;;;;;;;;;;5026378;28;20292;-74
2021/06/21 08:23:24;;;;;;;;;;;;;;;;;;5028873;28;20372;-74
2021/06/21 08:25:50;;;;;;;;;;;;;;;;;;5030534;28;19920;-75
2021/06/21 08:28:16;;;;;;;;;;;;;;;;;;5029443;28;20012;-74
2021/06/21 08:30:42;;;;;;;;;;;;;;;;;;5028593;28;20000;-74
2021/06/21 08:33:07;;;;;;;;;;;;;;;;;;5029041;28;19917;-75
2021/06/21 08:35:33;;;;;;;;;;;;;;;;;;5029653;28;19920;-74
2021/06/21 08:37:59;;;;;;;;;;;;;;;;;;5025284;28;20385;-74
2021/06/21 08:40:27;;;;;;;;;;;;;;;;;;5029833;28;19913;-73
2021/06/21 08:42:53;;;;;;;;;;;;;;;;;;5028788;28;19913;-74
2021/06/21 08:45:19;;;;;;;;;;;;;;;;;;5027875;28;19967;-74
2021/06/21 08:47:44;;;;;;;;;;;;;;;;;;5031327;28;19921;-74
2021/06/21 08:50:10;;;;;;;;;;;;;;;;;;5029223;28;19927;-74
2021/06/21 08:52:36;;;;;;;;;;;;;;;;;;5040919;28;19913;-74
2021/06/21 08:55:03;;;;;;;;;;;;;;;;;;5028211;28;19998;-74
2021/06/21 08:57:30;;;;;;;;;;;;;;;;;;5031213;28;20391;-74
2021/06/21 08:59:56;;;;;;;;;;;;;;;;;;5024356;28;19913;-72
2021/06/21 09:02:22;;;;;;;;;;;;;;;;;;5023979;28;19988;-74
2021/06/21 09:04:47;;;;;;;;;;;;;;;;;;5029855;28;19913;-74
2021/06/21 09:07:13;;;;;;;;;;;;;;;;;;5029979;28;19924;-74
2021/06/21 09:09:39;;;;;;;;;;;;;;;;;;5028796;28;19967;-74
2021/06/21 09:12:05;;;;;;;;;;;;;;;;;;5027825;28;19959;-73
2021/06/21 09:14:31;;;;;;;;;;;;;;;;;;5028368;28;19909;-73
2021/06/21 09:16:57;;;;;;;;;;;;;;;;;;5027906;28;19979;-74
2021/06/21 09:19:23;;;;;;;;;;;;;;;;;;5028348;28;19975;-73
2021/06/21 09:21:49;;;;;;;;;;;;;;;;;;5028126;28;19909;-73
2021/06/21 09:24:15;;;;;;;;;;;;;;;;;;5032401;28;20368;-73
2021/06/21 09:26:41;;;;;;;;;;;;;;;;;;5032165;28;19917;-73
2021/06/21 09:29:07;;;;;;;;;;;;;;;;;;5034109;28;19920;-73
2021/06/21 09:31:33;;;;;;;;;;;;;;;;;;5035457;28;19917;-74
2021/06/21 09:33:59;;;;;;;;;;;;;;;;;;5030202;28;19913;-74
2021/06/21 09:36:25;;;;;;;;;;;;;;;;;;5029224;28;19991;-74
2021/06/21 09:38:53;;;;;;;;;;;;;;;;;;5031915;28;19925;-73
2021/06/21 09:41:19;;;;;;;;;;;;;;;;;;5029452;28;20384;-73
2021/06/21 09:43:45;;;;;;;;;;;;;;;;;;5031509;28;19913;-73
2021/06/21 09:46:11;;;;;;;;;;;;;;;;;;5033348;28;19924;-74
2021/06/21 09:48:36;;;;;;;;;;;;;;;;;;5030095;28;19924;-73
2021/06/21 09:51:02;;;;;;;;;;;;;;;;;;5032359;28;19913;-74
2021/06/21 09:53:28;;;;;;;;;;;;;;;;;;5031269;28;19920;-75
2021/06/21 09:55:54;;;;;;;;;;;;;;;;;;5031118;28;19940;-75
2021/06/21 09:58:21;;;;;;;;;;;;;;;;;;5030087;28;19987;-73
2021/06/21 10:00:47;;;;;;;;;;;;;;;;;;5034011;28;19975;-74
2021/06/21 10:03:13;;;;;;;;;;;;;;;;;;5032594;28;19916;-72
2021/06/21 10:05:40;;;;;;;;;;;;;;;;;;5031619;28;19913;-73
2021/06/21 10:08:07;;;;;;;;;;;;;;;;;;5031961;28;19987;-73
2021/06/21 10:10:32;;;;;;;;;;;;;;;;;;5034084;28;19912;-73
2021/06/21 10:12:58;;;;;;;;;;;;;;;;;;5029689;28;19935;-73
2021/06/21 10:15:24;;;;;;;;;;;;;;;;;;5027929;28;19937;-73
2021/06/21 10:17:50;;;;;;;;;;;;;;;;;;5024873;28;20035;-72
2021/06/21 10:20:18;;;;;;;;;;;;;;;;;;5023623;28;20300;-72
2021/06/21 10:22:44;;;;;;;;;;;;;;;;;;5026975;28;19913;-73
2021/06/21 10:25:10;;;;;;;;;;;;;;;;;;5029008;28;20368;-73
2021/06/21 10:27:36;;;;;;;;;;;;;;;;;;5029371;28;19917;-72
2021/06/21 10:30:02;;;;;;;;;;;;;;;;;;5031325;28;19913;-72
2021/06/21 10:32:28;;;;;;;;;;;;;;;;;;5030669;28;19920;-72
2021/06/21 10:34:54;;;;;;;;;;;;;;;;;;5030486;28;19909;-73
2021/06/21 10:37:21;;;;;;;;;;;;;;;;;;5025903;28;19913;-72
2021/06/21 10:39:47;;;;;;;;;;;;;;;;;;5028227;28;19920;-72
2021/06/21 10:42:13;;;;;;;;;;;;;;;;;;5031147;28;19920;-72
2021/06/21 10:44:39;;;;;;;;;;;;;;;;;;5024608;28;20432;-72
2021/06/21 10:47:05;;;;;;;;;;;;;;;;;;5029247;28;19932;-72
2021/06/21 10:49:31;;;;;;;;;;;;;;;;;;5029889;28;19921;-73
2021/06/21 10:51:56;;;;;;;;;;;;;;;;;;5033294;28;19917;-72
2021/06/21 10:54:22;;;;;;;;;;;;;;;;;;5031869;28;20032;-72
2021/06/21 10:56:48;;;;;;;;;;;;;;;;;;5044312;28;19920;-72
2021/06/21 10:59:14;;;;;;;;;;;;;;;;;;5028656;28;20403;-72
2021/06/21 11:01:40;;;;;;;;;;;;;;;;;;5029040;28;19917;-72
2021/06/21 11:04:07;;;;;;;;;;;;;;;;;;5031158;28;19913;-71
2021/06/21 11:06:33;;;;;;;;;;;;;;;;;;5028800;28;19913;-72
2021/06/21 11:08:59;;;;;;;;;;;;;;;;;;5025479;28;20007;-72
2021/06/21 11:11:25;;;;;;;;;;;;;;;;;;5023482;28;20335;-72
2021/06/21 11:13:51;;;;;;;;;;;;;;;;;;5029041;28;19917;-72
2021/06/21 11:16:21;;;;;;;;;;;;;;;;;;5027950;28;19917;-73
2021/06/21 11:18:47;;;;;;;;;;;;;;;;;;5025781;28;19968;-72
2021/06/21 11:21:13;;;;;;;;;;;;;;;;;;5027536;28;19913;-72
2021/06/21 11:23:38;;;;;;;;;;;;;;;;;;5033405;28;19982;-72
2021/06/21 11:26:04;;;;;;;;;;;;;;;;;;5022062;28;20566;-71
2021/06/21 11:28:30;;;;;;;;;;;;;;;;;;5027069;28;19921;-72
2021/06/21 11:30:56;;;;;;;;;;;;;;;;;;5028710;28;19920;-71
2021/06/21 11:33:22;;;;;;;;;;;;;;;;;;5030276;28;19920;-72
2021/06/21 11:35:48;;;;;;;;;;;;;;;;;;5030032;28;20480;-72
2021/06/21 11:38:14;;;;;;;;;;;;;;;;;;5036900;28;20376;-72
2021/06/21 11:40:41;;;;;;;;;;;;;;;;;;5011452;28;22760;-72
2021/06/21 11:43:07;;;;;;;;;;;;;;;;;;5031494;28;19913;-72
2021/06/21 11:45:33;;;;;;;;;;;;;;;;;;5031030;28;20430;-74
2021/06/21 11:47:58;;;;;;;;;;;;;;;;;;5028460;28;19917;-74
2021/06/21 11:50:24;;;;;;;;;;;;;;;;;;5023874;28;20384;-74
2021/06/21 11:52:50;;;;;;;;;;;;;;;;;;5028164;28;20010;-75
2021/06/21 11:55:16;;;;;;;;;;;;;;;;;;5030175;28;19975;-74
2021/06/21 11:57:42;;;;;;;;;;;;;;;;;;5029052;28;20323;-74
2021/06/21 12:00:08;;;;;;;;;;;;;;;;;;5030562;28;19925;-75
2021/06/21 12:02:34;;;;;;;;;;;;;;;;;;5030050;28;19984;-74
2021/06/21 12:05:00;;;;;;;;;;;;;;;;;;5027534;28;19921;-74
2021/06/21 12:07:26;;;;;;;;;;;;;;;;;;5027396;28;19917;-75
2021/06/21 12:09:52;;;;;;;;;;;;;;;;;;5029751;28;20015;-74
2021/06/21 12:12:18;;;;;;;;;;;;;;;;;;5019303;28;20562;-74
2021/06/21 12:14:44;;;;;;;;;;;;;;;;;;5029125;28;19909;-75
2021/06/21 12:17:10;;;;;;;;;;;;;;;;;;5030674;28;19913;-74
2021/06/21 12:19:36;;;;;;;;;;;;;;;;;;5025202;28;20365;-74
2021/06/21 12:22:02;;;;;;;;;;;;;;;;;;5021430;28;19914;-74
2021/06/21 12:24:28;;;;;;;;;;;;;;;;;;5028948;28;20363;-74
2021/06/21 12:26:54;;;;;;;;;;;;;;;;;;5045834;28;20008;-75
2021/06/21 12:29:20;;;;;;;;;;;;;;;;;;5027959;28;19920;-74
2021/06/21 12:31:46;;;;;;;;;;;;;;;;;;5026760;28;20267;-74
2021/06/21 12:34:12;;;;;;;;;;;;;;;;;;5032030;28;19996;-75
2021/06/21 12:36:38;;;;;;;;;;;;;;;;;;5027492;28;20008;-75
2021/06/21 12:39:04;;;;;;;;;;;;;;;;;;5028268;28;20024;-74
2021/06/21 12:41:30;;;;;;;;;;;;;;;;;;5028893;28;19997;-74
2021/06/21 12:43:55;;;;;;;;;;;;;;;;;;5028786;28;20012;-74
2021/06/21 12:46:21;;;;;;;;;;;;;;;;;;5028254;28;19913;-74
2021/06/21 12:48:47;;;;;;;;;;;;;;;;;;5026427;28;19917;-75
2021/06/21 12:51:13;;;;;;;;;;;;;;;;;;5032028;28;19913;-75
2021/06/21 12:53:39;;;;;;;;;;;;;;;;;;5027779;28;19944;-75
2021/06/21 12:56:05;;;;;;;;;;;;;;;;;;5029535;28;19917;-74
2021/06/21 12:58:31;;;;;;;;;;;;;;;;;;5038323;28;19924;-74
2021/06/21 13:01:00;;;;;;;;;;;;;;;;;;5032520;28;20356;-74
2021/06/21 13:03:26;;;;;;;;;;;;;;;;;;5031810;28;20209;-75
2021/06/21 13:05:52;;;;;;;;;;;;;;;;;;5035286;28;20004;-74
2021/06/21 13:08:18;;;;;;;;;;;;;;;;;;5034148;28;20427;-74
2021/06/21 13:10:43;;;;;;;;;;;;;;;;;;5032233;28;19920;-74
2021/06/21 13:13:09;;;;;;;;;;;;;;;;;;5031432;28;19913;-74
2021/06/21 13:15:35;;;;;;;;;;;;;;;;;;5028608;28;19913;-74
2021/06/21 13:18:01;;;;;;;;;;;;;;;;;;5032411;28;20277;-74
2021/06/21 13:20:27;;;;;;;;;;;;;;;;;;5033704;28;19917;-74
2021/06/21 13:22:53;;;;;;;;;;;;;;;;;;5029435;28;20420;-74
2021/06/21 13:25:19;;;;;;;;;;;;;;;;;;5031683;28;20000;-74
2021/06/21 13:27:45;;;;;;;;;;;;;;;;;;5031670;28;19917;-74
2021/06/21 13:30:11;;;;;;;;;;;;;;;;;;5030397;28;19917;-74
2021/06/21 13:32:36;;;;;;;;;;;;;;;;;;5029364;28;19913;-75
2021/06/21 13:35:02;;;;;;;;;;;;;;;;;;5036028;28;19914;-73
2021/06/21 13:37:28;;;;;;;;;;;;;;;;;;5029312;28;19940;-74
2021/06/21 13:39:54;;;;;;;;;;;;;;;;;;5030691;28;19922;-74
2021/06/21 13:42:20;;;;;;;;;;;;;;;;;;5027995;28;20376;-73
2021/06/21 13:44:46;;;;;;;;;;;;;;;;;;5032972;28;19920;-74
2021/06/21 13:47:12;;;;;;;;;;;;;;;;;;5031695;28;19975;-73
2021/06/21 13:49:38;;;;;;;;;;;;;;;;;;5031345;28;19967;-73
2021/06/21 13:52:12;;;;;;;;;;;;;;;;;;5029795;28;19935;-74
2021/06/21 13:54:38;;;;;;;;;;;;;;;;;;5028382;28;20304;-74
2021/06/21 13:57:03;;;;;;;;;;;;;;;;;;5025667;28;19917;-74
2021/06/21 13:59:29;;;;;;;;;;;;;;;;;;5022272;28;19913;-74
2021/06/21 14:01:56;;;;;;;;;;;;;;;;;;5018084;28;20341;-73
2021/06/21 14:04:22;;;;;;;;;;;;;;;;;;5029418;28;19917;-74
2021/06/21 14:06:48;;;;;;;;;;;;;;;;;;5020878;28;20299;-74
2021/06/21 14:09:17;;;;;;;;;;;;;;;;;;5009239;28;19921;-74
2021/06/21 14:11:43;;;;;;;;;;;;;;;;;;5016971;28;19957;-76
2021/06/21 14:14:09;;;;;;;;;;;;;;;;;;5020895;28;20333;-74
2021/06/21 14:16:35;;;;;;;;;;;;;;;;;;5022370;28;19924;-73
2021/06/21 14:19:03;;;;;;;;;;;;;;;;;;5017279;28;19999;-74
2021/06/21 14:21:29;;;;;;;;;;;;;;;;;;5017206;28;19913;-74
2021/06/21 14:23:58;;;;;;;;;;;;;;;;;;5022893;28;20359;-74
2021/06/21 14:26:24;;;;;;;;;;;;;;;;;;5024057;28;19917;-75
2021/06/21 14:28:50;;;;;;;;;;;;;;;;;;5021564;28;19920;-74
2021/06/21 14:31:16;;;;;;;;;;;;;;;;;;5028027;28;19918;-75
2021/06/21 14:33:42;;;;;;;;;;;;;;;;;;5024945;28;19917;-75
2021/06/21 14:36:07;;;;;;;;;;;;;;;;;;5024090;28;19917;-74
2021/06/21 14:38:33;;;;;;;;;;;;;;;;;;5013884;28;20453;-74
2021/06/21 14:40:59;;;;;;;;;;;;;;;;;;5021050;28;19917;-75
2021/06/21 14:43:25;;;;;;;;;;;;;;;;;;5020149;28;20542;-74
2021/06/21 14:45:51;;;;;;;;;;;;;;;;;;5024043;28;19921;-74
2021/06/21 14:48:17;;;;;;;;;;;;;;;;;;5019540;28;19921;-75
2021/06/21 14:50:43;;;;;;;;;;;;;;;;;;5020371;28;19909;-74
2021/06/21 14:53:09;;;;;;;;;;;;;;;;;;5020036;28;19917;-75
2021/06/21 14:55:36;;;;;;;;;;;;;;;;;;5018080;28;19921;-74
2021/06/21 14:58:02;;;;;;;;;;;;;;;;;;5018065;28;19921;-74
2021/06/21 15:00:28;;;;;;;;;;;;;;;;;;5023922;28;19913;-75
2021/06/21 15:02:54;;;;;;;;;;;;;;;;;;5015972;28;19924;-75
2021/06/21 15:05:20;;;;;;;;;;;;;;;;;;5023871;28;20338;-74
2021/06/21 15:07:46;;;;;;;;;;;;;;;;;;5016287;28;19928;-75
2021/06/21 15:10:11;;;;;;;;;;;;;;;;;;5022406;28;20355;-76
2021/06/21 15:12:37;;;;;;;;;;;;;;;;;;5020186;28;20361;-75
2021/06/21 15:15:04;;;;;;;;;;;;;;;;;;5017479;28;20043;-75
2021/06/21 15:17:30;;;;;;;;;;;;;;;;;;5019950;28;19917;-73
2021/06/21 15:19:56;;;;;;;;;;;;;;;;;;5015104;28;19924;-75
2021/06/21 15:22:22;;;;;;;;;;;;;;;;;;5014753;28;19965;-74
2021/06/21 15:24:48;;;;;;;;;;;;;;;;;;5019268;28;19924;-74
2021/06/21 15:27:14;;;;;;;;;;;;;;;;;;5017009;28;19925;-75
2021/06/21 15:29:40;;;;;;;;;;;;;;;;;;5016416;28;20030;-71
2021/06/21 15:32:06;;;;;;;;;;;;;;;;;;5010215;28;19917;-71
2021/06/21 15:34:31;;;;;;;;;;;;;;;;;;5018515;28;20380;-72
2021/06/21 15:36:57;;;;;;;;;;;;;;;;;;5014395;28;20555;-72
2021/06/21 15:39:23;;;;;;;;;;;;;;;;;;5020034;28;19927;-71
2021/06/21 15:41:49;;;;;;;;;;;;;;;;;;5012708;28;20224;-72
2021/06/21 15:44:15;;;;;;;;;;;;;;;;;;5003679;28;20196;-70
2021/06/21 15:46:41;;;;;;;;;;;;;;;;;;5009608;28;19987;-72
2021/06/21 15:49:07;;;;;;;;;;;;;;;;;;5014037;28;19952;-71
2021/06/21 15:51:35;;;;;;;;;;;;;;;;;;5004619;28;19924;-71
2021/06/21 15:54:01;;;;;;;;;;;;;;;;;;5013405;28;19920;-71
2021/06/21 15:56:27;;;;;;;;;;;;;;;;;;5012019;28;20746;-72
2021/06/21 15:58:53;;;;;;;;;;;;;;;;;;5028731;28;19917;-77
2021/06/21 16:01:19;;;;;;;;;;;;;;;;;;5014524;28;19917;-76
2021/06/21 16:03:45;;;;;;;;;;;;;;;;;;5011270;28;19951;-76
2021/06/21 16:06:11;;;;;;;;;;;;;;;;;;5016038;28;20096;-76
2021/06/21 16:08:37;;;;;;;;;;;;;;;;;;5025185;28;20316;-77
2021/06/21 16:11:03;;;;;;;;;;;;;;;;;;5030509;28;19947;-77
2021/06/21 16:13:28;;;;;;;;;;;;;;;;;;5028933;28;19920;-78
2021/06/21 16:15:54;;;;;;;;;;;;;;;;;;5029780;28;20316;-77
2021/06/21 16:18:20;;;;;;;;;;;;;;;;;;5029865;28;19953;-77
2021/06/21 16:20:46;;;;;;;;;;;;;;;;;;5028845;28;19917;-77
2021/06/21 16:23:12;;;;;;;;;;;;;;;;;;5028874;28;19921;-77
2021/06/21 16:25:38;;;;;;;;;;;;;;;;;;5028811;28;19921;-77
2021/06/21 16:28:04;;;;;;;;;;;;;;;;;;5030317;28;19917;-77
2021/06/21 16:30:30;;;;;;;;;;;;;;;;;;5029338;28;19925;-78
2021/06/21 16:32:56;;;;;;;;;;;;;;;;;;5028366;28;19925;-77
2021/06/21 16:35:22;;;;;;;;;;;;;;;;;;5029973;28;19999;-72
2021/06/21 16:37:48;;;;;;;;;;;;;;;;;;5025711;28;19914;-73
2021/06/21 16:40:14;;;;;;;;;;;;;;;;;;5027441;28;20288;-72